Time;durP1;ratioP1;P1;durP2;ratioP2;P2;SDS_P1;SDS_P2;PMS_P1;PMS_P2;Temp;Humidity;BMP_temperature;BMP_pressure;BME280_temperature;BME280_humidity;BME280_pressure;Samples;Min_cycle;Max_cycle;Signal;HPM_P1;HPM_P2
2022/07/21 00:00:58;0.00;0.00;0.62;0.00;0.00;0.62;12.63;11.33;;;30.10;25.90;;;;;;2226304;62;20439;-65
2022/07/21 00:03:45;0.00;0.00;0.62;0.00;0.00;0.62;12.60;11.30;;;30.10;26.00;;;;;;2225909;62;20657;-65
2022/07/21 00:06:30;0.00;0.00;0.62;0.00;0.00;0.62;11.87;10.77;;;30.00;26.10;;;;;;2226380;62;20656;-65
2022/07/21 00:09:15;0.00;0.00;0.62;0.00;0.00;0.62;13.00;11.53;;;30.00;26.20;;;;;;2226342;62;20446;-65
2022/07/21 00:12:00;0.00;0.00;0.62;0.00;0.00;0.62;10.63;9.57;;;30.00;26.40;;;;;;2226285;62;20760;-65
2022/07/21 00:14:45;0.00;0.00;0.62;0.00;0.00;0.62;12.03;10.90;;;30.00;26.90;;;;;;2226824;62;20491;-65
2022/07/21 00:17:30;0.00;0.00;0.62;0.00;0.00;0.62;10.60;9.60;;;29.90;26.50;;;;;;2225917;62;20370;-66
2022/07/21 00:20:18;0.00;0.00;0.62;0.00;0.00;0.62;10.33;9.33;;;29.90;26.60;;;;;;2226581;62;20435;-66
2022/07/21 00:23:03;0.00;0.00;0.62;0.00;0.00;0.62;8.77;7.97;;;29.90;26.80;;;;;;2226338;62;20608;-66
2022/07/21 00:25:49;0.00;0.00;0.62;0.00;0.00;0.62;10.33;9.17;;;30.00;26.70;;;;;;2261458;59;20417;-66
2022/07/21 00:28:34;0.00;0.00;0.62;0.00;0.00;0.62;10.50;9.50;;;30.00;26.80;;;;;;2230500;62;20364;-66
2022/07/21 00:31:19;0.00;0.00;0.62;0.00;0.00;0.62;10.33;9.13;;;30.00;26.90;;;;;;2229939;62;20760;-67
2022/07/21 00:34:06;0.00;0.00;0.62;0.00;0.00;0.62;10.43;8.70;;;30.00;27.50;;;;;;2230121;62;20369;-66
2022/07/21 00:36:52;0.00;0.00;0.62;0.00;0.00;0.62;9.93;8.50;;;30.00;27.20;;;;;;2230520;62;20409;-69
2022/07/21 00:39:37;0.00;0.00;0.62;0.00;0.00;0.62;12.40;9.13;;;30.00;27.20;;;;;;2225855;62;20439;-70
2022/07/21 00:42:23;0.00;0.00;0.62;0.00;0.00;0.62;8.67;7.83;;;30.00;27.20;;;;;;2226500;62;20394;-69
2022/07/21 00:45:10;0.00;0.00;0.62;0.00;0.00;0.62;9.40;8.47;;;30.00;27.10;;;;;;2226318;62;20362;-70
2022/07/21 00:47:55;0.00;0.00;0.62;0.00;0.00;0.62;8.80;7.40;;;30.10;27.10;;;;;;2225703;62;20421;-70
2022/07/21 00:50:40;0.00;0.00;0.62;0.00;0.00;0.62;9.83;8.97;;;30.10;27.00;;;;;;2226460;62;20471;-68
2022/07/21 00:53:26;0.00;0.00;0.62;0.00;0.00;0.62;10.40;8.77;;;30.10;26.90;;;;;;2226460;62;20370;-69
2022/07/21 00:56:12;0.00;0.00;0.62;0.00;0.00;0.62;8.90;8.00;;;30.20;27.00;;;;;;2226062;62;20374;-68
2022/07/21 00:58:57;0.00;0.00;0.62;0.00;0.00;0.62;9.70;8.70;;;30.20;27.00;;;;;;2226550;62;20438;-67
2022/07/21 01:01:42;0.00;0.00;0.62;0.00;0.00;0.62;8.90;8.00;;;30.30;27.00;;;;;;2225533;62;20650;-67
2022/07/21 01:04:27;0.00;0.00;0.62;0.00;0.00;0.62;9.57;8.77;;;30.40;27.00;;;;;;2226439;62;20418;-67
2022/07/21 01:07:14;0.00;0.00;0.62;0.00;0.00;0.62;8.13;7.43;;;30.40;26.90;;;;;;2226310;62;20406;-68
2022/07/21 01:10:01;0.00;0.00;0.62;0.00;0.00;0.62;9.67;8.80;;;30.50;26.90;;;;;;2225569;62;20430;-68
2022/07/21 01:12:46;0.00;0.00;0.62;0.00;0.00;0.62;8.20;7.37;;;30.50;27.20;;;;;;2226471;62;20466;-67
2022/07/21 01:15:31;0.00;0.00;0.62;0.00;0.00;0.62;8.17;7.37;;;30.60;27.20;;;;;;2226383;62;20403;-67
2022/07/21 01:18:16;0.00;0.00;0.62;0.00;0.00;0.62;9.80;6.20;;;30.60;27.20;;;;;;2225905;62;20756;-68
2022/07/21 01:21:19;0.00;0.00;0.62;0.00;0.00;0.62;7.23;6.13;;;30.70;27.30;;;;;;2226322;62;20374;-68
2022/07/21 01:24:05;0.00;0.00;0.62;0.00;0.00;0.62;6.37;5.30;;;30.70;27.30;;;;;;2225492;62;20483;-68
2022/07/21 01:26:52;0.00;0.00;0.62;0.00;0.00;0.62;4.87;4.47;;;30.70;27.50;;;;;;2533139;46;20429;-69
2022/07/21 01:29:37;0.00;0.00;0.62;0.00;0.00;0.62;4.40;4.00;;;30.80;27.80;;;;;;2226140;62;20366;-67
2022/07/21 01:32:23;0.00;0.00;0.62;0.00;0.00;0.62;4.50;4.10;;;30.80;27.80;;;;;;2225560;62;20406;-68
2022/07/21 01:35:12;0.00;0.00;0.62;0.00;0.00;0.62;3.60;3.30;;;30.80;27.90;;;;;;2226474;62;20363;-65
2022/07/21 01:38:00;0.00;0.00;0.62;0.00;0.00;0.62;3.97;3.40;;;30.90;28.10;;;;;;2226081;62;20378;-66
2022/07/21 01:41:30;0.00;0.00;0.62;0.00;0.00;0.62;3.77;3.27;;;30.90;28.10;;;;;;2225949;62;20379;-67
2022/07/21 01:43:50;0.00;0.00;0.62;0.00;0.00;0.62;3.83;3.53;;;30.90;28.00;;;;;;2226096;62;20390;-67
2022/07/21 01:46:38;0.00;0.00;0.62;0.00;0.00;0.62;3.87;3.47;;;31.00;28.10;;;;;;2225687;62;20514;-67
2022/07/21 01:49:23;0.00;0.00;0.62;0.00;0.00;0.62;4.40;3.50;;;31.00;28.00;;;;;;2226407;62;20373;-67
2022/07/21 01:52:08;0.00;0.00;0.62;0.00;0.00;0.62;3.30;3.00;;;31.00;27.90;;;;;;2225999;62;20435;-70
2022/07/21 01:54:54;0.00;0.00;0.62;0.00;0.00;0.62;3.50;3.20;;;31.10;28.00;;;;;;2225668;62;20601;-67
2022/07/21 01:57:39;0.00;0.00;0.62;0.00;0.00;0.62;2.97;2.67;;;31.10;28.40;;;;;;2226482;62;20374;-70
2022/07/21 02:00:24;0.00;0.00;0.62;0.00;0.00;0.62;3.57;2.80;;;31.10;28.50;;;;;;2225644;62;20592;-70
2022/07/21 02:03:09;0.00;0.00;0.62;0.00;0.00;0.62;3.17;2.63;;;31.10;28.40;;;;;;2226085;62;20389;-69
2022/07/21 02:06:02;0.00;0.00;0.62;0.00;0.00;0.62;3.37;2.87;;;31.10;28.30;;;;;;2226125;62;20426;-69
2022/07/21 02:08:47;0.00;0.00;0.62;0.00;0.00;0.62;3.37;3.07;;;31.10;28.20;;;;;;2225482;62;20374;-70
2022/07/21 02:11:33;0.00;0.00;0.62;0.00;0.00;0.62;3.97;3.33;;;31.10;28.50;;;;;;2226289;62;20459;-70
2022/07/21 02:14:19;0.00;0.00;0.62;0.00;0.00;0.62;3.07;2.77;;;31.20;28.60;;;;;;2226050;62;20374;-67
2022/07/21 02:17:03;0.00;0.00;0.62;0.00;0.00;0.62;3.83;3.33;;;31.20;28.60;;;;;;2225616;62;20383;-66
2022/07/21 02:19:48;0.00;0.00;0.62;0.00;0.00;0.62;3.90;3.50;;;31.20;28.90;;;;;;2226332;62;20422;-69
2022/07/21 02:22:33;0.00;0.00;0.62;0.00;0.00;0.62;3.73;3.43;;;31.20;29.00;;;;;;2225684;62;20451;-69
2022/07/21 02:25:18;0.00;0.00;0.62;0.00;0.00;0.62;3.90;3.50;;;31.20;29.30;;;;;;2226006;62;20370;-66
2022/07/21 02:28:05;0.00;0.00;0.62;0.00;0.00;0.62;3.50;3.20;;;31.20;29.60;;;;;;2227929;62;20381;-68
2022/07/21 02:30:52;0.00;0.00;0.62;0.00;0.00;0.62;5.80;3.30;;;31.20;29.50;;;;;;2229248;62;20376;-68
2022/07/21 02:33:37;0.00;0.00;0.62;0.00;0.00;0.62;2.97;2.70;;;31.20;30.00;;;;;;2230190;62;20380;-69
2022/07/21 02:36:23;0.00;0.00;0.62;0.00;0.00;0.62;3.53;3.23;;;31.20;29.70;;;;;;2229862;62;20452;-68
2022/07/21 02:39:08;0.00;0.00;0.62;0.00;0.00;0.62;4.00;3.60;;;31.20;29.90;;;;;;2226203;62;20749;-68
2022/07/21 02:41:52;0.00;0.00;0.62;0.00;0.00;0.62;4.57;4.17;;;31.20;30.00;;;;;;2226215;62;20807;-68
2022/07/21 02:44:39;0.00;0.00;0.62;0.00;0.00;0.62;4.40;4.00;;;31.20;30.20;;;;;;2225471;62;20735;-71
2022/07/21 02:47:24;0.00;0.00;0.62;0.00;0.00;0.62;4.80;4.10;;;31.20;30.10;;;;;;2225958;62;20399;-69
2022/07/21 02:50:09;0.00;0.00;0.62;0.00;0.00;0.62;4.67;4.20;;;31.10;30.20;;;;;;2228300;62;20398;-68
2022/07/21 02:52:56;0.00;0.00;0.62;0.00;0.00;0.62;4.80;3.40;;;31.10;30.30;;;;;;2225304;62;20394;-69
2022/07/21 02:55:41;0.00;0.00;0.62;0.00;0.00;0.62;5.03;4.43;;;31.10;30.40;;;;;;2226240;62;20412;-70
2022/07/21 02:58:29;0.00;0.00;0.62;0.00;0.00;0.62;4.30;3.90;;;31.10;30.40;;;;;;2225870;62;20745;-68
2022/07/21 03:01:15;0.00;0.00;0.62;0.00;0.00;0.62;6.07;5.47;;;31.10;30.50;;;;;;2225170;62;20703;-65
2022/07/21 03:04:00;0.00;0.00;0.62;0.00;0.00;0.62;5.93;5.40;;;31.10;30.80;;;;;;2226239;62;20366;-69
2022/07/21 03:06:45;0.00;0.00;0.62;0.00;0.00;0.62;8.33;5.60;;;31.10;30.80;;;;;;2226080;62;20414;-70
2022/07/21 03:09:31;0.00;0.00;0.62;0.00;0.00;0.62;6.23;5.63;;;31.10;30.80;;;;;;2225668;62;20389;-65
2022/07/21 03:12:16;0.00;0.00;0.62;0.00;0.00;0.62;7.10;6.40;;;31.10;30.70;;;;;;2226057;62;20386;-66
2022/07/21 03:15:01;0.00;0.00;0.62;0.00;0.00;0.62;6.63;6.00;;;31.10;30.90;;;;;;2225443;62;20461;-68
2022/07/21 03:17:47;0.00;0.00;0.62;0.00;0.00;0.62;6.40;5.60;;;31.10;30.90;;;;;;2226209;62;20365;-66
2022/07/21 03:20:35;0.00;0.00;0.62;0.00;0.00;0.62;7.73;5.90;;;31.00;30.90;;;;;;2225687;62;20377;-68
2022/07/21 03:23:20;0.00;0.00;0.62;0.00;0.00;0.62;6.50;5.90;;;31.00;30.80;;;;;;2225382;62;20596;-69
2022/07/21 03:26:05;0.00;0.00;0.62;0.00;0.00;0.62;6.60;6.00;;;31.00;30.80;;;;;;2226024;62;20438;-69
2022/07/21 03:28:49;0.00;0.00;0.62;0.00;0.00;0.62;7.20;6.60;;;31.10;30.90;;;;;;2225804;62;20649;-70
2022/07/21 03:31:34;0.00;0.00;0.62;0.00;0.00;0.62;6.97;6.20;;;31.10;30.70;;;;;;2225494;62;20467;-69
2022/07/21 03:34:20;0.00;0.00;0.62;0.00;0.00;0.62;7.17;6.47;;;31.10;30.60;;;;;;2226032;62;20362;-68
2022/07/21 03:37:05;0.00;0.00;0.62;0.00;0.00;0.62;8.37;7.20;;;31.10;30.50;;;;;;2225190;62;20377;-69
2022/07/21 03:39:49;0.00;0.00;0.62;0.00;0.00;0.62;8.70;7.90;;;31.20;30.50;;;;;;2561689;46;20416;-69
2022/07/21 03:42:34;0.00;0.00;0.62;0.00;0.00;0.62;9.23;8.17;;;31.10;30.20;;;;;;2221828;62;20456;-68
2022/07/21 03:45:19;0.00;0.00;0.62;0.00;0.00;0.62;9.60;8.60;;;31.20;30.30;;;;;;2221399;62;20416;-69
2022/07/21 03:48:07;0.00;0.00;0.62;0.00;0.00;0.62;9.80;8.83;;;31.20;30.20;;;;;;2222170;62;20406;-66
2022/07/21 03:50:53;0.00;0.00;0.62;0.00;0.00;0.62;10.27;9.20;;;31.20;30.20;;;;;;2221852;62;20354;-68
2022/07/21 03:53:38;0.00;0.00;0.62;0.00;0.00;0.62;10.63;9.53;;;31.20;30.60;;;;;;2221475;62;20378;-68
2022/07/21 03:56:22;0.00;0.00;0.62;0.00;0.00;0.62;11.00;10.00;;;31.20;30.90;;;;;;2222157;62;20712;-69
2022/07/21 03:59:07;0.00;0.00;0.62;0.00;0.00;0.62;11.30;10.10;;;31.20;31.00;;;;;;2221698;62;20416;-69
2022/07/21 04:01:52;0.00;0.00;0.62;0.00;0.00;0.62;13.13;9.53;;;31.20;31.00;;;;;;2222008;62;20387;-66
2022/07/21 04:04:36;0.00;0.00;0.62;0.00;0.00;0.62;12.00;10.70;;;31.10;31.10;;;;;;2221736;62;20370;-68
2022/07/21 04:07:23;0.00;0.00;0.62;0.00;0.00;0.62;10.90;9.90;;;31.10;31.30;;;;;;2224632;62;20402;-69
2022/07/21 04:10:09;0.00;0.00;0.62;0.00;0.00;0.62;11.23;10.23;;;31.10;31.40;;;;;;2225368;62;20429;-66
2022/07/21 04:12:54;0.00;0.00;0.62;0.00;0.00;0.62;12.23;10.83;;;31.10;31.70;;;;;;2225742;62;20424;-67
2022/07/21 04:15:40;0.00;0.00;0.62;0.00;0.00;0.62;11.23;10.23;;;31.00;32.00;;;;;;2225413;62;20447;-67
2022/07/21 04:18:25;0.00;0.00;0.62;0.00;0.00;0.62;12.40;11.20;;;31.00;32.10;;;;;;2225572;62;20450;-67
2022/07/21 04:21:09;0.00;0.00;0.62;0.00;0.00;0.62;11.47;10.47;;;30.90;32.20;;;;;;2225275;62;20393;-68
2022/07/21 04:23:55;0.00;0.00;0.62;0.00;0.00;0.62;10.33;9.33;;;30.90;32.40;;;;;;2227375;62;20380;-69
2022/07/21 04:26:40;0.00;0.00;0.62;0.00;0.00;0.62;10.43;9.37;;;30.90;32.70;;;;;;2229558;62;20518;-66
2022/07/21 04:29:24;0.00;0.00;0.62;0.00;0.00;0.62;10.30;9.20;;;30.90;32.80;;;;;;2229006;62;20395;-66
2022/07/21 04:32:09;0.00;0.00;0.62;0.00;0.00;0.62;10.47;9.53;;;30.90;32.90;;;;;;2229672;62;20401;-68
2022/07/21 04:34:54;0.00;0.00;0.62;0.00;0.00;0.62;9.90;9.00;;;30.80;32.90;;;;;;2229732;62;20416;-66
2022/07/21 04:37:39;0.00;0.00;0.62;0.00;0.00;0.62;10.03;9.13;;;30.80;33.10;;;;;;2228437;62;20583;-69
2022/07/21 04:40:25;0.00;0.00;0.62;0.00;0.00;0.62;11.70;8.97;;;30.80;33.30;;;;;;2226541;62;20638;-64
2022/07/21 04:43:10;0.00;0.00;0.62;0.00;0.00;0.62;9.20;8.37;;;30.70;33.30;;;;;;2225954;62;20374;-68
2022/07/21 04:45:55;0.00;0.00;0.62;0.00;0.00;0.62;9.00;8.20;;;30.70;33.60;;;;;;2226154;62;20417;-69
2022/07/21 04:48:39;0.00;0.00;0.62;0.00;0.00;0.62;9.10;8.20;;;30.70;33.90;;;;;;2226660;62;20436;-65
2022/07/21 04:51:24;0.00;0.00;0.62;0.00;0.00;0.62;9.43;8.03;;;30.60;33.90;;;;;;2225567;62;20393;-66
2022/07/21 04:54:13;0.00;0.00;0.62;0.00;0.00;0.62;14.43;8.33;;;30.60;33.90;;;;;;2226624;62;20381;-67
2022/07/21 04:57:02;0.00;0.00;0.62;0.00;0.00;0.62;11.03;8.70;;;30.50;33.90;;;;;;2226299;62;20718;-69
2022/07/21 04:59:46;0.00;0.00;0.62;0.00;0.00;0.62;8.93;8.00;;;30.50;34.00;;;;;;2225752;62;20381;-67
2022/07/21 05:02:31;0.00;0.00;0.62;0.00;0.00;0.62;8.43;7.73;;;30.40;34.10;;;;;;2226661;62;20537;-69
2022/07/21 05:05:16;0.00;0.00;0.62;0.00;0.00;0.62;9.03;8.13;;;30.40;34.10;;;;;;2226218;62;20442;-68
2022/07/21 05:08:01;0.00;0.00;0.62;0.00;0.00;0.62;8.07;7.33;;;30.40;34.20;;;;;;2480161;54;20359;-70
2022/07/21 05:10:46;0.00;0.00;0.62;0.00;0.00;0.62;8.00;7.20;;;30.30;34.40;;;;;;2222466;62;20371;-68
2022/07/21 05:13:32;0.00;0.00;0.62;0.00;0.00;0.62;7.67;6.97;;;30.30;34.30;;;;;;2221806;62;20739;-67
2022/07/21 05:16:17;0.00;0.00;0.62;0.00;0.00;0.62;8.93;8.00;;;30.30;34.30;;;;;;2222719;62;20399;-67
2022/07/21 05:19:01;0.00;0.00;0.62;0.00;0.00;0.62;6.83;6.23;;;30.20;34.20;;;;;;2222356;62;20367;-67
2022/07/21 05:21:46;0.00;0.00;0.62;0.00;0.00;0.62;7.37;6.53;;;30.20;34.10;;;;;;2221611;62;20826;-67
2022/07/21 05:24:31;0.00;0.00;0.62;0.00;0.00;0.62;7.73;7.00;;;30.20;34.10;;;;;;2222649;62;20370;-69
2022/07/21 05:27:16;0.00;0.00;0.62;0.00;0.00;0.62;7.43;6.73;;;30.10;34.00;;;;;;2222412;62;20861;-67
2022/07/21 05:30:03;0.00;0.00;0.62;0.00;0.00;0.62;7.43;6.57;;;30.10;34.10;;;;;;2222066;62;20739;-68
2022/07/21 05:32:47;0.00;0.00;0.62;0.00;0.00;0.62;7.60;6.17;;;30.10;34.20;;;;;;2222558;62;20402;-69
2022/07/21 05:35:32;0.00;0.00;0.62;0.00;0.00;0.62;7.53;6.80;;;30.00;34.00;;;;;;2221564;62;20359;-69
2022/07/21 05:38:16;0.00;0.00;0.62;0.00;0.00;0.62;10.83;5.70;;;30.00;34.10;;;;;;2224424;62;20419;-70
2022/07/21 05:41:03;0.00;0.00;0.62;0.00;0.00;0.62;6.20;5.60;;;30.00;34.10;;;;;;2226047;62;20603;-67
2022/07/21 05:43:48;0.00;0.00;0.62;0.00;0.00;0.62;6.50;5.90;;;30.00;34.00;;;;;;2225521;62;20397;-67
2022/07/21 05:46:34;0.00;0.00;0.62;0.00;0.00;0.62;6.50;5.80;;;29.90;34.00;;;;;;2226382;62;20414;-68
2022/07/21 05:49:19;0.00;0.00;0.62;0.00;0.00;0.62;6.33;5.70;;;29.90;34.10;;;;;;2226085;62;20374;-69
2022/07/21 05:52:05;0.00;0.00;0.62;0.00;0.00;0.62;6.40;5.53;;;29.90;34.10;;;;;;2225538;62;20390;-66
2022/07/21 05:54:50;0.00;0.00;0.62;0.00;0.00;0.62;5.50;5.00;;;29.80;34.00;;;;;;2226430;62;20415;-65
2022/07/21 05:57:34;0.00;0.00;0.62;0.00;0.00;0.62;5.93;5.37;;;29.80;34.10;;;;;;2225671;62;20366;-68
2022/07/21 06:00:19;0.00;0.00;0.62;0.00;0.00;0.62;5.67;5.17;;;29.80;34.20;;;;;;2226320;62;20399;-68
2022/07/21 06:03:05;0.00;0.00;0.62;0.00;0.00;0.62;5.30;4.80;;;29.80;34.20;;;;;;2226049;62;20394;-67
2022/07/21 06:05:50;0.00;0.00;0.62;0.00;0.00;0.62;5.83;5.33;;;29.80;34.20;;;;;;2225539;62;20507;-69
2022/07/21 06:08:37;0.00;0.00;0.62;0.00;0.00;0.62;7.30;5.80;;;29.70;34.20;;;;;;2226269;62;20465;-68
2022/07/21 06:11:22;0.00;0.00;0.62;0.00;0.00;0.62;5.83;5.33;;;29.70;34.40;;;;;;2225897;62;20393;-67
2022/07/21 06:14:06;0.00;0.00;0.62;0.00;0.00;0.62;6.10;5.50;;;29.70;34.60;;;;;;2225820;62;20366;-66
2022/07/21 06:16:51;0.00;0.00;0.62;0.00;0.00;0.62;5.80;5.20;;;29.60;34.60;;;;;;2226424;62;20450;-68
2022/07/21 06:19:37;0.00;0.00;0.62;0.00;0.00;0.62;7.93;6.00;;;29.60;34.50;;;;;;2225732;62;20484;-66
2022/07/21 06:22:22;0.00;0.00;0.62;0.00;0.00;0.62;5.53;5.07;;;29.60;34.70;;;;;;2226382;62;20397;-67
2022/07/21 06:25:08;0.00;0.00;0.62;0.00;0.00;0.62;5.07;4.50;;;29.60;34.70;;;;;;2226105;62;20449;-66
2022/07/21 06:27:52;0.00;0.00;0.62;0.00;0.00;0.62;6.10;5.50;;;29.60;34.70;;;;;;2225668;62;20374;-66
2022/07/21 06:30:38;0.00;0.00;0.62;0.00;0.00;0.62;5.67;5.27;;;29.60;35.00;;;;;;2226174;62;20415;-69
2022/07/21 06:33:23;0.00;0.00;0.62;0.00;0.00;0.62;6.47;5.57;;;29.60;35.00;;;;;;2225908;62;20378;-68
2022/07/21 06:36:09;0.00;0.00;0.62;0.00;0.00;0.62;5.27;4.77;;;29.60;35.00;;;;;;2225529;62;20370;-69
2022/07/21 06:38:54;0.00;0.00;0.62;0.00;0.00;0.62;5.53;5.03;;;29.60;35.00;;;;;;2226331;62;20592;-66
2022/07/21 06:41:39;0.00;0.00;0.62;0.00;0.00;0.62;6.50;5.90;;;29.60;35.00;;;;;;2225967;62;20394;-66
2022/07/21 06:44:30;0.00;0.00;0.62;0.00;0.00;0.62;5.60;4.87;;;29.60;35.20;;;;;;2225790;62;20374;-68
2022/07/21 06:47:15;0.00;0.00;0.62;0.00;0.00;0.62;6.37;4.83;;;29.60;35.20;;;;;;2225942;62;20664;-67
2022/07/21 06:50:02;0.00;0.00;0.62;0.00;0.00;0.62;5.07;4.67;;;29.60;35.20;;;;;;2225576;62;20362;-67
2022/07/21 06:52:49;0.00;0.00;0.62;0.00;0.00;0.62;5.63;5.13;;;29.60;35.20;;;;;;2226284;62;20647;-63
2022/07/21 06:55:34;0.00;0.00;0.62;0.00;0.00;0.62;4.07;3.73;;;29.60;35.10;;;;;;2225978;62;20370;-63
2022/07/21 06:58:22;0.00;0.00;0.62;0.00;0.00;0.62;4.87;4.30;;;29.60;35.20;;;;;;2225495;62;20370;-68
2022/07/21 07:01:07;0.00;0.00;0.62;0.00;0.00;0.62;4.47;3.97;;;29.60;35.20;;;;;;2225712;62;20435;-67
2022/07/21 07:03:52;0.00;0.00;0.62;0.00;0.00;0.62;4.73;4.27;;;29.60;35.20;;;;;;2225557;62;20427;-62
2022/07/21 07:06:36;0.00;0.00;0.62;0.00;0.00;0.62;5.13;4.63;;;29.50;35.20;;;;;;2225928;62;20446;-62
2022/07/21 07:09:23;0.00;0.00;0.62;0.00;0.00;0.62;4.33;3.30;;;29.50;35.20;;;;;;2225893;62;20750;-64
2022/07/21 07:12:08;0.00;0.00;0.62;0.00;0.00;0.62;4.30;3.43;;;29.50;35.10;;;;;;2225292;62;20504;-65
2022/07/21 07:14:53;0.00;0.00;0.62;0.00;0.00;0.62;4.60;3.43;;;29.60;35.10;;;;;;2226572;62;20366;-63
2022/07/21 07:17:38;0.00;0.00;0.62;0.00;0.00;0.62;3.10;2.70;;;29.60;35.20;;;;;;2226310;62;20366;-63
2022/07/21 07:20:23;0.00;0.00;0.62;0.00;0.00;0.62;4.03;2.80;;;29.60;35.10;;;;;;2225598;62;20369;-64
2022/07/21 07:23:09;0.00;0.00;0.62;0.00;0.00;0.62;2.90;2.40;;;29.60;35.00;;;;;;2226577;62;20508;-64
2022/07/21 07:25:55;0.00;0.00;0.62;0.00;0.00;0.62;2.57;2.33;;;29.60;35.00;;;;;;2226009;62;20381;-64
2022/07/21 07:28:40;0.00;0.00;0.62;0.00;0.00;0.62;2.77;2.47;;;29.60;34.90;;;;;;2225832;62;20427;-67
2022/07/21 07:31:24;0.00;0.00;0.62;0.00;0.00;0.62;2.30;2.10;;;29.60;34.90;;;;;;2225940;62;20832;-70
2022/07/21 07:34:09;0.00;0.00;0.62;0.00;0.00;0.62;2.97;2.67;;;29.60;34.90;;;;;;2224936;62;20604;-64
2022/07/21 07:36:53;0.00;0.00;0.62;0.00;0.00;0.62;3.00;2.43;;;29.60;35.60;;;;;;2225800;62;20439;-65
2022/07/21 07:39:39;0.00;0.00;0.62;0.00;0.00;0.62;2.07;1.83;;;29.50;34.90;;;;;;2225725;62;20499;-64
2022/07/21 07:42:26;0.00;0.00;0.62;0.00;0.00;0.62;2.30;1.97;;;29.50;34.90;;;;;;2225110;62;20393;-64
2022/07/21 07:45:12;0.00;0.00;0.62;0.00;0.00;0.62;2.00;1.80;;;29.50;34.90;;;;;;2226250;62;20405;-64
2022/07/21 07:47:57;0.00;0.00;0.62;0.00;0.00;0.62;2.00;1.80;;;29.50;35.00;;;;;;2225679;62;20960;-64
2022/07/21 07:50:42;0.00;0.00;0.62;0.00;0.00;0.62;2.00;1.80;;;29.50;35.10;;;;;;2225352;62;20370;-68
2022/07/21 07:53:27;0.00;0.00;0.62;0.00;0.00;0.62;1.93;1.40;;;29.50;35.30;;;;;;2226202;62;20390;-67
2022/07/21 07:56:11;0.00;0.00;0.62;0.00;0.00;0.62;1.87;1.67;;;29.40;35.40;;;;;;2225161;62;20366;-65
2022/07/21 07:58:58;0.00;0.00;0.62;0.00;0.00;0.62;2.67;1.77;;;29.40;35.40;;;;;;2226022;62;20414;-67
2022/07/21 08:01:42;0.00;0.00;0.62;0.00;0.00;0.62;2.23;2.00;;;29.40;35.50;;;;;;2225694;62;20389;-66
2022/07/21 08:04:27;0.00;0.00;0.62;0.00;0.00;0.62;1.60;1.30;;;29.40;35.60;;;;;;2225148;62;20373;-68
2022/07/21 08:07:12;0.00;0.00;0.62;0.00;0.00;0.62;1.60;1.20;;;29.40;35.50;;;;;;2226095;62;20400;-67
2022/07/21 08:09:57;0.00;0.00;0.62;0.00;0.00;0.62;1.80;1.60;;;29.40;35.60;;;;;;2225673;62;20627;-70
2022/07/21 08:12:42;0.00;0.00;0.62;0.00;0.00;0.62;1.70;1.30;;;29.30;35.70;;;;;;2225196;62;20505;-69
2022/07/21 08:15:28;0.00;0.00;0.62;0.00;0.00;0.62;2.30;1.30;;;29.30;35.60;;;;;;2226991;62;20479;-64
2022/07/21 08:18:14;0.00;0.00;0.62;0.00;0.00;0.62;1.60;1.20;;;29.30;35.70;;;;;;2225862;62;20750;-67
2022/07/21 08:20:59;0.00;0.00;0.62;0.00;0.00;0.62;1.77;1.40;;;29.30;35.50;;;;;;2226673;62;20389;-67
2022/07/21 08:23:44;0.00;0.00;0.62;0.00;0.00;0.62;2.47;1.70;;;29.30;35.50;;;;;;2226353;62;20391;-70
2022/07/21 08:26:29;0.00;0.00;0.62;0.00;0.00;0.62;2.00;1.40;;;29.30;35.60;;;;;;2225842;62;20447;-65
2022/07/21 08:29:14;0.00;0.00;0.62;0.00;0.00;0.62;2.10;1.80;;;29.30;35.60;;;;;;2227821;62;20605;-70
2022/07/21 08:32:00;0.00;0.00;0.62;0.00;0.00;0.62;1.90;1.60;;;29.30;35.50;;;;;;2226148;62;20413;-67
2022/07/21 08:34:45;0.00;0.00;0.62;0.00;0.00;0.62;2.27;1.70;;;29.30;35.50;;;;;;2226157;62;20366;-74
2022/07/21 08:37:30;0.00;0.00;0.62;0.00;0.00;0.62;1.93;1.73;;;29.30;35.60;;;;;;2226639;62;20419;-70
2022/07/21 08:40:14;0.00;0.00;0.62;0.00;0.00;0.62;1.93;1.60;;;29.30;35.50;;;;;;2225932;62;20411;-67
2022/07/21 08:43:00;0.00;0.00;0.62;0.00;0.00;0.62;2.80;1.70;;;29.30;35.50;;;;;;2226674;62;20458;-65
2022/07/21 08:45:45;0.00;0.00;0.62;0.00;0.00;0.62;2.10;1.67;;;29.30;35.50;;;;;;2226266;62;20366;-66
2022/07/21 08:48:32;0.00;0.00;0.62;0.00;0.00;0.62;2.00;1.80;;;29.30;35.50;;;;;;2225925;62;20366;-69
2022/07/21 08:51:17;0.00;0.00;0.62;0.00;0.00;0.62;1.90;1.67;;;29.30;35.50;;;;;;2226609;62;20749;-70
2022/07/21 08:54:04;0.00;0.00;0.62;0.00;0.00;0.62;3.07;1.83;;;29.30;35.40;;;;;;2225787;62;20374;-69
2022/07/21 08:56:49;0.00;0.00;0.62;0.00;0.00;0.62;2.50;1.83;;;29.30;35.40;;;;;;2225976;62;20366;-65
2022/07/21 08:59:34;0.00;0.00;0.62;0.00;0.00;0.62;2.23;2.03;;;29.30;35.40;;;;;;2226470;62;20595;-70
2022/07/21 09:02:30;0.00;0.00;0.62;0.00;0.00;0.62;3.10;2.80;;;29.30;35.40;;;;;;2225592;62;20389;-68
2022/07/21 09:05:17;0.00;0.00;0.62;0.00;0.00;0.62;3.03;2.73;;;29.30;35.20;;;;;;2226621;62;20418;-66
2022/07/21 09:08:01;0.00;0.00;0.62;0.00;0.00;0.62;3.60;3.30;;;29.30;35.20;;;;;;2449772;54;20432;-70
2022/07/21 09:10:46;0.00;0.00;0.62;0.00;0.00;0.62;3.73;3.43;;;29.40;35.10;;;;;;2221564;62;20641;-66
2022/07/21 09:13:30;0.00;0.00;0.62;0.00;0.00;0.62;3.97;3.67;;;29.40;35.00;;;;;;2222708;62;20807;-66
2022/07/21 09:16:32;0.00;0.00;0.62;0.00;0.00;0.62;4.20;3.80;;;29.40;35.00;;;;;;2222626;62;20375;-68
2022/07/21 09:19:21;0.00;0.00;0.62;0.00;0.00;0.62;4.30;4.00;;;29.40;34.90;;;;;;2224300;62;20727;-68
2022/07/21 09:22:14;0.00;0.00;0.62;0.00;0.00;0.62;4.70;4.30;;;29.40;35.00;;;;;;2222565;62;20414;-69
2022/07/21 09:25:00;0.00;0.00;0.62;0.00;0.00;0.62;5.83;5.23;;;29.30;35.00;;;;;;2221740;62;20371;-69
2022/07/21 09:27:45;0.00;0.00;0.62;0.00;0.00;0.62;6.17;5.57;;;29.30;35.00;;;;;;2222599;62;20439;-72
2022/07/21 09:30:47;0.00;0.00;0.62;0.00;0.00;0.62;6.90;6.30;;;29.30;34.90;;;;;;2222235;62;20363;-68
2022/07/21 09:33:35;0.00;0.00;0.62;0.00;0.00;0.62;6.83;6.23;;;29.30;34.80;;;;;;2221880;62;20454;-72
2022/07/21 09:36:20;0.00;0.00;0.62;0.00;0.00;0.62;7.80;7.10;;;29.30;34.80;;;;;;2222613;62;20389;-69
2022/07/21 09:39:06;0.00;0.00;0.62;0.00;0.00;0.62;7.43;6.73;;;29.30;34.70;;;;;;2225125;62;20382;-69
2022/07/21 09:41:51;0.00;0.00;0.62;0.00;0.00;0.62;8.10;7.50;;;29.30;34.70;;;;;;2226032;62;20394;-63
2022/07/21 09:44:36;0.00;0.00;0.62;0.00;0.00;0.62;8.10;7.40;;;29.30;34.70;;;;;;2226475;62;20418;-68
2022/07/21 09:47:23;0.00;0.00;0.62;0.00;0.00;0.62;7.70;7.10;;;29.30;34.70;;;;;;2225623;62;20454;-70
2022/07/21 09:50:12;0.00;0.00;0.62;0.00;0.00;0.62;7.80;7.20;;;29.20;34.60;;;;;;2226277;62;20419;-64
2022/07/21 09:52:57;0.00;0.00;0.62;0.00;0.00;0.62;10.63;7.77;;;29.20;34.60;;;;;;2224560;62;20435;-69
2022/07/21 09:55:44;0.00;0.00;0.62;0.00;0.00;0.62;9.03;8.07;;;29.20;34.70;;;;;;2224881;62;20823;-66
2022/07/21 09:58:29;0.00;0.00;0.62;0.00;0.00;0.62;7.53;6.80;;;29.20;34.70;;;;;;2226189;62;20435;-62
2022/07/21 10:01:14;0.00;0.00;0.62;0.00;0.00;0.62;7.40;6.80;;;29.20;34.80;;;;;;2226095;62;20669;-66
2022/07/21 10:04:00;0.00;0.00;0.62;0.00;0.00;0.62;8.27;7.50;;;29.20;34.80;;;;;;2225932;62;20629;-65
2022/07/21 10:06:46;0.00;0.00;0.62;0.00;0.00;0.62;7.27;6.67;;;29.20;34.90;;;;;;2226282;62;20811;-66
2022/07/21 10:09:31;0.00;0.00;0.62;0.00;0.00;0.62;8.63;7.80;;;29.10;34.80;;;;;;2225522;62;20370;-66
2022/07/21 10:12:17;0.00;0.00;0.62;0.00;0.00;0.62;8.13;7.50;;;29.10;34.80;;;;;;2226183;62;20507;-71
2022/07/21 10:15:03;0.00;0.00;0.62;0.00;0.00;0.62;7.97;7.27;;;29.10;34.90;;;;;;2226188;62;20375;-65
2022/07/21 10:17:53;0.00;0.00;0.62;0.00;0.00;0.62;7.40;6.80;;;29.10;35.00;;;;;;2225589;62;20415;-65
2022/07/21 10:20:42;0.00;0.00;0.62;0.00;0.00;0.62;8.70;7.80;;;29.10;35.00;;;;;;2226164;62;20649;-66
2022/07/21 10:23:37;0.00;0.00;0.62;0.00;0.00;0.62;8.20;7.50;;;29.10;35.10;;;;;;2225565;62;20398;-66
2022/07/21 10:26:22;0.00;0.00;0.62;0.00;0.00;0.62;9.33;8.43;;;29.10;35.00;;;;;;2225928;62;20420;-66
2022/07/21 10:29:08;0.00;0.00;0.62;0.00;0.00;0.62;10.03;9.13;;;29.10;35.00;;;;;;2226116;62;20387;-66
2022/07/21 10:32:09;0.00;0.00;0.62;0.00;0.00;0.62;8.23;7.43;;;29.10;35.60;;;;;;2225304;62;20409;-65
2022/07/21 10:34:55;0.00;0.00;0.62;0.00;0.00;0.62;9.07;8.23;;;29.10;34.90;;;;;;2226316;62;20370;-66
2022/07/21 10:37:47;0.00;0.00;0.62;0.00;0.00;0.62;10.20;9.23;;;29.10;35.00;;;;;;2225847;62;20770;-66
2022/07/21 10:40:40;0.00;0.00;0.62;0.00;0.00;0.62;8.43;7.63;;;29.00;35.00;;;;;;2225394;62;20386;-66
2022/07/21 10:43:44;0.00;0.00;0.62;0.00;0.00;0.62;9.73;8.83;;;29.00;35.00;;;;;;2226318;62;20438;-66
2022/07/21 10:46:38;0.00;0.00;0.62;0.00;0.00;0.62;9.00;8.30;;;29.00;34.90;;;;;;2225489;62;20407;-66
2022/07/21 10:49:55;0.00;0.00;0.62;0.00;0.00;0.62;9.30;8.50;;;28.90;34.60;;;;;;2226251;62;20499;-66
2022/07/21 10:53:13;0.00;0.00;0.62;0.00;0.00;0.62;10.13;9.33;;;28.90;34.50;;;;;;2226012;62;20439;-66
2022/07/21 10:55:58;0.00;0.00;0.62;0.00;0.00;0.62;9.27;8.47;;;28.90;34.60;;;;;;2225894;62;20455;-66